• Join FlightAware (Why Join?)
  • Login
  • US Flag 
12:41AM EDT


 

Airport Tracker/Info


-or-


 

Live Flight TrackerFlight Track Log ✈ N2767T ✈ 13-May-2013 ✈ K15 - KHOT

Flight Track Log - Related Links

Times and Time Zones

All times are in EDT time to prevent confusion due to time zone crossing. See the N2767T flight status page for this flight to view local times or setup timezone preferences in your user account.

Time Position Orientation Groundspeed Altitude Reporting Facility
EDT Latitude Longitude Course Direction KTS MPH feet Rate Location/Type
03:45PM 37.9356 -92.6914 180° South 125 144 5,100  Level Kansas City Center
03:46PM 37.8983 -92.6944 184° South 130 150 5,700 480 Climbing Kansas City Center
03:47PM 37.8592 -92.6972 183° South 135 155 6,200 360 Climbing Kansas City Center
03:48PM 37.8197 -92.6975 180° South 139 160 6,500 120 Climbing Kansas City Center
03:49PM 37.7750 -92.7014 184° South 149 171 6,500  Level Kansas City Center
03:50PM 37.8852 -92.7075 180° South  Level Estimated
03:50PM 37.7300 -92.7086 187° South 157 181 6,500  Level Kansas City Center
03:51PM 37.6772 -92.7156 186° South 159 183 6,500  Level Kansas City Center
03:52PM 37.6336 -92.7219 187° South 159 183 6,500  Level Kansas City Center
03:53PM 37.5897 -92.7281 186° South 158 182 6,500  Level Kansas City Center
03:54PM 37.5467 -92.7333 186° South 157 181 6,500  Level Kansas City Center
03:55PM 37.5022 -92.7386 185° South 158 182 6,500  Level Kansas City Center
03:56PM 37.4569 -92.7433 185° South 160 184 6,500  Level Kansas City Center
03:57PM 37.4044 -92.7503 186° South 159 183 6,500  Level Kansas City Center
03:58PM 37.3603 -92.7561 186° South 160 184 6,500  Level Kansas City Center
03:59PM 37.3167 -92.7600 184° South 158 182 6,500  Level Kansas City Center
04:00PM 37.2722 -92.7653 185° South 159 183 6,500  Level Kansas City Center
04:01PM 37.2261 -92.7714 186° South 162 186 6,600  Climbing Kansas City Center
04:03PM 37.1822 -92.7767 185° South 161 185 6,500  Descending Kansas City Center
04:04PM 37.1375 -92.7831 186° South 161 185 6,600  Climbing Kansas City Center
04:05PM 37.0847 -92.7881 184° South 160 184 6,600  Level Kansas City Center
04:06PM 37.0422 -92.7939 186° South 157 181 6,600  Level Kansas City Center
04:07PM 36.9992 -92.7986 185° South 155 178 6,600  Level Kansas City Center
04:08PM 36.9561 -92.8036 185° South 155 178 6,600  Level Kansas City Center
04:09PM 36.9111 -92.8086 185° South 158 182 6,600  Level Kansas City Center
04:10PM 36.8686 -92.8139 186° South 156 180 6,600  Level Kansas City Center
04:10PM 36.8431 -92.8222 195° South 159 183 6,600  Level Memphis Center
04:11PM 36.8014 -92.8236 182° South 159 183 6,600  Level Memphis Center
04:12PM 36.7636 -92.8303 188° South 164 189 6,600  Level Memphis Center
04:13PM 36.7239 -92.8369 188° South 159 183 6,600  Level Memphis Center
04:14PM 36.6822 -92.8381 181° South 159 183 6,600  Level Memphis Center
04:15PM 36.6425 -92.8447 188° South 159 183 6,600  Level Memphis Center
04:16PM 36.6006 -92.8536 190° South 159 183 6,600  Level Memphis Center
04:17PM 36.5611 -92.8550 182° South 154 177 6,600  Level Memphis Center
04:18PM 36.5214 -92.8617 188° South 149 171 6,600  Level Memphis Center
04:19PM 36.4817 -92.8656 185° South 149 171 6,600  Level Memphis Center
04:20PM 36.4419 -92.8694 185° South 154 177 6,600  Level Memphis Center
04:21PM 36.3981 -92.8733 184° South 159 183 6,600  Level Memphis Center
04:22PM 36.3564 -92.8772 184° South 159 183 6,600  Level Memphis Center
04:23PM 36.3125 -92.8836 187° South 159 183 6,600  Level Memphis Center
04:24PM 36.2706 -92.8875 184° South 159 183 6,600  Level Memphis Center
04:25PM 36.2308 -92.8964 190° South 159 183 6,600  Level Memphis Center
04:26PM 36.1869 -92.9028 187° South 159 183 6,600  Level Memphis Center
04:27PM 36.1431 -92.9067 184° South 159 183 6,600  Level Memphis Center
04:28PM 36.0992 -92.9078 181° South 159 183 6,600  Level Memphis Center
04:29PM 36.0553 -92.9142 187° South 159 183 6,600  Level Memphis Center
04:30PM 36.0136 -92.9181 184° South 159 183 6,600  Level Memphis Center
04:31PM 35.9697 -92.9242 186° South 159 183 6,600  Level Memphis Center
04:32PM 35.9300 -92.9308 188° South 159 183 6,600  Level Memphis Center
04:33PM 35.8881 -92.9372 187° South 159 183 6,600  Level Memphis Center
04:34PM 35.8464 -92.9383 181° South 159 183 6,600  Level Memphis Center
04:35PM 35.8025 -92.9422 184° South 159 183 6,600  Level Memphis Center
04:36PM 35.7628 -92.9486 187° South 159 183 6,600  Level Memphis Center
04:37PM 35.7208 -92.9550 187° South 154 177 6,600  Level Memphis Center
04:38PM 35.6811 -92.9664 193° South 154 177 6,600  Level Memphis Center
04:39PM 35.6436 -92.9653 179° South 154 177 6,600  Level Memphis Center
04:40PM 35.6039 -92.9667 182° South 149 171 6,600  Level Memphis Center
04:41PM 35.5642 -92.9731 187° South 143 165 6,600  Level Memphis Center
04:42PM 35.5244 -92.9769 185° South 143 165 6,600  Level Memphis Center
04:43PM 35.4825 -92.9806 184° South 143 165 6,600  Level Memphis Center
04:44PM 35.4408 -92.9869 187° South 143 165 6,600  Level Memphis Center
04:45PM 35.3925 -92.9931 186° South 148 170 6,600  Level Memphis Center
04:46PM 35.3528 -92.9969 185° South 153 176 6,600  Level Memphis Center
04:47PM 35.3131 -93.0033 187° South 153 176 6,600  Level Memphis Center
04:48PM 35.2672 -93.0069 184° South 158 182 6,600  Level Memphis Center
04:49PM 35.2253 -93.0108 184° South 158 182 6,600  Level Memphis Center
04:50PM 35.1814 -93.0144 184° South 163 188 6,600  Level Memphis Center
04:51PM 35.1417 -93.0183 185° South 163 188 6,600  Level Memphis Center
04:52PM 35.0978 -93.0219 184° South 163 188 6,600  Level Memphis Center
04:53PM 35.0539 -93.0281 187° South 163 188 6,600  Level Memphis Center
04:54PM 35.0119 -93.0344 187° South 163 188 6,600  Level Memphis Center
04:55PM 34.9703 -93.0383 184° South 163 188 6,600  Level Memphis Center
04:56PM 34.9283 -93.0444 187° South 163 188 6,600  Level Memphis Center
04:57PM 34.8908 -93.0483 185° South 157 181 6,600  Level Memphis Center
04:58PM 34.8511 -93.0547 188° South 152 175 6,600 -240 Level Memphis Center
04:59PM 34.8092 -93.0583 184° South 152 175 6,200 -420 Descending Memphis Center
05:00PM 34.7694 -93.0647 188° South 152 175 5,800 -480 Descending Memphis Center
05:01PM 34.7297 -93.0661 182° South 146 168 5,300 -540 Descending Memphis Center